sensor_id;sensor_type;location;lat;lon;timestamp;pressure;altitude;pressure_sealevel;temperature;humidity
54910;BME280;63189;51.240;9.964;2024-02-26T00:01:56;96395.94;;;1.26;100.00
54910;BME280;63189;51.240;9.964;2024-02-26T00:04:22;96395.88;;;1.29;100.00
54910;BME280;63189;51.240;9.964;2024-02-26T00:06:47;96336.63;;;0.95;100.00
54910;BME280;63189;51.240;9.964;2024-02-26T00:09:15;96389.09;;;1.26;100.00
54910;BME280;63189;51.240;9.964;2024-02-26T00:11:40;96388.19;;;1.27;100.00
54910;BME280;63189;51.240;9.964;2024-02-26T00:14:06;96372.81;;;1.27;100.00
54910;BME280;63189;51.240;9.964;2024-02-26T00:16:31;96380.44;;;1.30;100.00
54910;BME280;63189;51.240;9.964;2024-02-26T00:18:57;96383.00;;;1.30;100.00
54910;BME280;63189;51.240;9.964;2024-02-26T00:21:23;96325.41;;;1.00;100.00
54910;BME280;63189;51.240;9.964;2024-02-26T00:23:49;96357.50;;;1.21;100.00
54910;BME280;63189;51.240;9.964;2024-02-26T00:26:15;96367.66;;;1.27;100.00
54910;BME280;63189;51.240;9.964;2024-02-26T00:28:40;96370.97;;;1.32;100.00
54910;BME280;63189;51.240;9.964;2024-02-26T00:31:06;96370.91;;;1.35;100.00
54910;BME280;63189;51.240;9.964;2024-02-26T00:33:31;96362.34;;;1.36;100.00
54910;BME280;63189;51.240;9.964;2024-02-26T00:35:56;96352.25;;;1.27;100.00
54910;BME280;63189;51.240;9.964;2024-02-26T00:38:22;96364.94;;;1.36;100.00
54910;BME280;63189;51.240;9.964;2024-02-26T00:40:47;96367.53;;;1.33;100.00
54910;BME280;63189;51.240;9.964;2024-02-26T00:43:12;96361.50;;;1.34;100.00
54910;BME280;63189;51.240;9.964;2024-02-26T00:45:38;96351.41;;;1.27;100.00
54910;BME280;63189;51.240;9.964;2024-02-26T00:48:04;96359.69;;;1.41;100.00
54910;BME280;63189;51.240;9.964;2024-02-26T00:50:33;96366.44;;;1.47;100.00
54910;BME280;63189;51.240;9.964;2024-02-26T00:52:59;96360.44;;;1.44;100.00
54910;BME280;63189;51.240;9.964;2024-02-26T00:55:25;96354.53;;;1.41;100.00
54910;BME280;63189;51.240;9.964;2024-02-26T00:57:51;96380.81;;;1.54;100.00
54910;BME280;63189;51.240;9.964;2024-02-26T01:00:16;96366.41;;;1.48;100.00
54910;BME280;63189;51.240;9.964;2024-02-26T01:02:42;96363.81;;;1.48;100.00
54910;BME280;63189;51.240;9.964;2024-02-26T01:05:08;96370.63;;;1.51;100.00
54910;BME280;63189;51.240;9.964;2024-02-26T01:07:37;96365.47;;;1.51;100.00
54910;BME280;63189;51.240;9.964;2024-02-26T01:10:03;96373.16;;;1.52;100.00
54910;BME280;63189;51.240;9.964;2024-02-26T01:12:28;96367.19;;;1.50;100.00
54910;BME280;63189;51.240;9.964;2024-02-26T01:14:54;96368.13;;;1.48;100.00
54910;BME280;63189;51.240;9.964;2024-02-26T01:17:19;96364.75;;;1.44;100.00
54910;BME280;63189;51.240;9.964;2024-02-26T01:19:44;96366.41;;;1.48;100.00
54910;BME280;63189;51.240;9.964;2024-02-26T01:22:10;96355.38;;;1.41;100.00
54910;BME280;63189;51.240;9.964;2024-02-26T01:24:35;96352.81;;;1.41;100.00
54910;BME280;63189;51.240;9.964;2024-02-26T01:27:00;96352.00;;;1.39;100.00
54910;BME280;63189;51.240;9.964;2024-02-26T01:29:25;96324.91;;;1.26;100.00
54910;BME280;63189;51.240;9.964;2024-02-26T01:31:51;96349.31;;;1.47;100.00
54910;BME280;63189;51.240;9.964;2024-02-26T01:34:16;96345.94;;;1.43;100.00
54910;BME280;63189;51.240;9.964;2024-02-26T01:36:43;96331.47;;;1.39;100.00
54910;BME280;63189;51.240;9.964;2024-02-26T01:39:09;96337.34;;;1.44;100.00
54910;BME280;63189;51.240;9.964;2024-02-26T01:41:40;96304.53;;;1.17;100.00
54910;BME280;63189;51.240;9.964;2024-02-26T01:44:06;96330.56;;;1.42;100.00
54910;BME280;63189;51.240;9.964;2024-02-26T01:46:33;96343.34;;;1.43;100.00
54910;BME280;63189;51.240;9.964;2024-02-26T01:48:59;96327.19;;;1.40;100.00
54910;BME280;63189;51.240;9.964;2024-02-26T01:51:25;96315.34;;;1.33;100.00
54910;BME280;63189;51.240;9.964;2024-02-26T01:53:51;96349.41;;;1.41;100.00
54910;BME280;63189;51.240;9.964;2024-02-26T01:56:17;96336.69;;;1.36;100.00
54910;BME280;63189;51.240;9.964;2024-02-26T01:58:44;96334.03;;;1.39;100.00
54910;BME280;63189;51.240;9.964;2024-02-26T02:01:10;96332.38;;;1.37;100.00
54910;BME280;63189;51.240;9.964;2024-02-26T02:03:36;96322.16;;;1.34;100.00
54910;BME280;63189;51.240;9.964;2024-02-26T02:06:02;96311.13;;;1.30;100.00
54910;BME280;63189;51.240;9.964;2024-02-26T02:08:27;96330.56;;;1.42;100.00
54910;BME280;63189;51.240;9.964;2024-02-26T02:10:53;96321.47;;;1.27;100.00
54910;BME280;63189;51.240;9.964;2024-02-26T02:13:18;96308.00;;;1.16;100.00
54910;BME280;63189;51.240;9.964;2024-02-26T02:15:43;96323.06;;;1.31;100.00
54910;BME280;63189;51.240;9.964;2024-02-26T02:18:09;96318.94;;;1.26;100.00
54910;BME280;63189;51.240;9.964;2024-02-26T02:20:35;96351.88;;;1.45;100.00
54910;BME280;63189;51.240;9.964;2024-02-26T02:23:00;96350.19;;;1.46;100.00
54910;BME280;63189;51.240;9.964;2024-02-26T02:25:26;96328.13;;;1.34;100.00
54910;BME280;63189;51.240;9.964;2024-02-26T02:27:55;96341.59;;;1.47;100.00
54910;BME280;63189;51.240;9.964;2024-02-26T02:30:28;96302.72;;;1.22;100.00
54910;BME280;63189;51.240;9.964;2024-02-26T02:32:55;96326.22;;;1.44;100.00
54910;BME280;63189;51.240;9.964;2024-02-26T02:35:20;96341.41;;;1.55;100.00
54910;BME280;63189;51.240;9.964;2024-02-26T02:37:46;96341.44;;;1.53;100.00
54910;BME280;63189;51.240;9.964;2024-02-26T02:40:11;96347.31;;;1.60;100.00
54910;BME280;63189;51.240;9.964;2024-02-26T02:42:36;96348.19;;;1.59;100.00
54910;BME280;63189;51.240;9.964;2024-02-26T02:45:02;96336.28;;;1.55;100.00
54910;BME280;63189;51.240;9.964;2024-02-26T02:47:27;96354.06;;;1.64;100.00
54910;BME280;63189;51.240;9.964;2024-02-26T02:49:53;96345.63;;;1.59;100.00
54910;BME280;63189;51.240;9.964;2024-02-26T02:52:18;96346.50;;;1.58;100.00
54910;BME280;63189;51.240;9.964;2024-02-26T02:54:43;96338.91;;;1.52;100.00
54910;BME280;63189;51.240;9.964;2024-02-26T02:57:09;96354.22;;;1.58;100.00
54910;BME280;63189;51.240;9.964;2024-02-26T02:59:35;96347.31;;;1.60;100.00
54910;BME280;63189;51.240;9.964;2024-02-26T03:02:00;96355.09;;;1.57;100.00
54910;BME280;63189;51.240;9.964;2024-02-26T03:04:26;96342.22;;;1.58;100.00
54910;BME280;63189;51.240;9.964;2024-02-26T03:06:51;96357.50;;;1.63;100.00
54910;BME280;63189;51.240;9.964;2024-02-26T03:09:16;96348.94;;;1.64;100.00
54910;BME280;63189;51.240;9.964;2024-02-26T03:11:42;96326.19;;;1.47;100.00
54910;BME280;63189;51.240;9.964;2024-02-26T03:14:07;96343.94;;;1.58;100.00
54910;BME280;63189;51.240;9.964;2024-02-26T03:16:33;96348.19;;;1.59;100.00
54910;BME280;63189;51.240;9.964;2024-02-26T03:18:59;96348.19;;;1.59;100.00
54910;BME280;63189;51.240;9.964;2024-02-26T03:21:25;96341.41;;;1.55;100.00
54910;BME280;63189;51.240;9.964;2024-02-26T03:23:50;96355.03;;;1.60;100.00
54910;BME280;63189;51.240;9.964;2024-02-26T03:26:16;96346.47;;;1.59;100.00
54910;BME280;63189;51.240;9.964;2024-02-26T03:28:41;96349.88;;;1.60;100.00
54910;BME280;63189;51.240;9.964;2024-02-26T03:31:07;96341.22;;;1.64;100.00
54910;BME280;63189;51.240;9.964;2024-02-26T03:33:32;96339.59;;;1.60;100.00
54910;BME280;63189;51.240;9.964;2024-02-26T03:35:57;96304.84;;;1.43;100.00
54910;BME280;63189;51.240;9.964;2024-02-26T03:38:22;96336.88;;;1.66;100.00
54910;BME280;63189;51.240;9.964;2024-02-26T03:40:48;96339.44;;;1.67;100.00
54910;BME280;63189;51.240;9.964;2024-02-26T03:43:13;96341.09;;;1.70;100.00
54910;BME280;63189;51.240;9.964;2024-02-26T03:45:39;96339.41;;;1.69;100.00
54910;BME280;63189;51.240;9.964;2024-02-26T03:48:04;96345.31;;;1.72;100.00
54910;BME280;63189;51.240;9.964;2024-02-26T03:50:30;96341.91;;;1.72;100.00
54910;BME280;63189;51.240;9.964;2024-02-26T03:52:55;96345.22;;;1.77;100.00
54910;BME280;63189;51.240;9.964;2024-02-26T03:55:22;96339.25;;;1.75;100.00
54910;BME280;63189;51.240;9.964;2024-02-26T03:57:51;96326.53;;;1.70;100.00
54910;BME280;63189;51.240;9.964;2024-02-26T04:00:16;96327.03;;;1.86;100.00
54910;BME280;63189;51.240;9.964;2024-02-26T04:02:42;96333.72;;;1.93;100.00
54910;BME280;63189;51.240;9.964;2024-02-26T04:05:11;96343.88;;;1.99;100.00
54910;BME280;63189;51.240;9.964;2024-02-26T04:07:36;96308.22;;;1.84;100.00
54910;BME280;63189;51.240;9.964;2024-02-26T04:10:02;96330.19;;;1.97;100.00
54910;BME280;63189;51.240;9.964;2024-02-26T04:12:30;96337.69;;;2.07;100.00
54910;BME280;63189;51.240;9.964;2024-02-26T04:14:55;96318.25;;;1.95;100.00
54910;BME280;63189;51.240;9.964;2024-02-26T04:17:21;96339.22;;;2.15;100.00
54910;BME280;63189;51.240;9.964;2024-02-26T04:19:46;96340.91;;;2.16;100.00
54910;BME280;63189;51.240;9.964;2024-02-26T04:22:12;96334.84;;;2.19;100.00
54910;BME280;63189;51.240;9.964;2024-02-26T04:24:37;96333.09;;;2.21;100.00
54910;BME280;63189;51.240;9.964;2024-02-26T04:27:02;96332.13;;;2.25;100.00
54910;BME280;63189;51.240;9.964;2024-02-26T04:29:28;96317.75;;;2.16;100.00
54910;BME280;63189;51.240;9.964;2024-02-26T04:31:53;96315.16;;;2.19;100.00
54910;BME280;63189;51.240;9.964;2024-02-26T04:34:19;96328.72;;;2.24;100.00
54910;BME280;63189;51.240;9.964;2024-02-26T04:36:44;96316.00;;;2.20;100.00
54910;BME280;63189;51.240;9.964;2024-02-26T04:39:09;96315.19;;;2.16;100.00
54910;BME280;63189;51.240;9.964;2024-02-26T04:41:35;96321.19;;;2.17;100.00
54910;BME280;63189;51.240;9.964;2024-02-26T04:44:00;96342.50;;;2.22;100.00
54910;BME280;63189;51.240;9.964;2024-02-26T04:46:27;96334.88;;;2.17;100.00
54910;BME280;63189;51.240;9.964;2024-02-26T04:48:53;96331.53;;;2.14;100.00
54910;BME280;63189;51.240;9.964;2024-02-26T04:51:18;96341.69;;;2.20;100.00
54910;BME280;63189;51.240;9.964;2024-02-26T04:53:44;96343.38;;;2.21;100.00
54910;BME280;63189;51.240;9.964;2024-02-26T04:56:09;96345.06;;;2.22;100.00
54910;BME280;63189;51.240;9.964;2024-02-26T04:58:34;96329.84;;;2.13;100.00
54910;BME280;63189;51.240;9.964;2024-02-26T05:01:00;96324.81;;;2.08;100.00
54910;BME280;63189;51.240;9.964;2024-02-26T05:03:25;96344.41;;;2.14;100.00
54910;BME280;63189;51.240;9.964;2024-02-26T05:05:50;96352.84;;;2.19;100.00
54910;BME280;63189;51.240;9.964;2024-02-26T05:08:16;96346.13;;;2.13;100.00
54910;BME280;63189;51.240;9.964;2024-02-26T05:10:41;96353.72;;;2.19;100.00
54910;BME280;63189;51.240;9.964;2024-02-26T05:13:08;96356.28;;;2.19;100.00
54910;BME280;63189;51.240;9.964;2024-02-26T05:15:35;96352.81;;;2.20;100.00
54910;BME280;63189;51.240;9.964;2024-02-26T05:18:00;96351.91;;;2.23;100.00
54910;BME280;63189;51.240;9.964;2024-02-26T05:20:25;96350.25;;;2.19;100.00
54910;BME280;63189;51.240;9.964;2024-02-26T05:22:51;96364.00;;;2.19;100.00
54910;BME280;63189;51.240;9.964;2024-02-26T05:25:16;96374.16;;;2.24;100.00
54910;BME280;63189;51.240;9.964;2024-02-26T05:27:43;96371.56;;;2.25;100.00
54910;BME280;63189;51.240;9.964;2024-02-26T05:30:09;96374.25;;;2.21;100.00
54910;BME280;63189;51.240;9.964;2024-02-26T05:32:35;96364.09;;;2.15;100.00
54910;BME280;63189;51.240;9.964;2024-02-26T05:35:00;96370.75;;;2.23;100.00
54910;BME280;63189;51.240;9.964;2024-02-26T05:37:26;96377.47;;;2.29;100.00
54910;BME280;63189;51.240;9.964;2024-02-26T05:39:52;96367.13;;;2.32;100.00
54910;BME280;63189;51.240;9.964;2024-02-26T05:42:17;96361.91;;;2.35;100.00
54910;BME280;63189;51.240;9.964;2024-02-26T05:44:42;96366.97;;;2.38;100.00
54910;BME280;63189;51.240;9.964;2024-02-26T05:47:07;96369.59;;;2.35;100.00
54910;BME280;63189;51.240;9.964;2024-02-26T05:49:33;96367.75;;;2.42;100.00
54910;BME280;63189;51.240;9.964;2024-02-26T05:51:58;96361.75;;;2.41;100.00
54910;BME280;63189;51.240;9.964;2024-02-26T05:54:24;96373.53;;;2.51;100.00
54910;BME280;63189;51.240;9.964;2024-02-26T05:56:49;96365.81;;;2.50;100.00
54910;BME280;63189;51.240;9.964;2024-02-26T05:59:14;96376.91;;;2.53;100.00
54910;BME280;63189;51.240;9.964;2024-02-26T06:01:41;96362.38;;;2.51;100.00
54910;BME280;63189;51.240;9.964;2024-02-26T06:04:06;96361.47;;;2.53;100.00
54910;BME280;63189;51.240;9.964;2024-02-26T06:06:31;96380.22;;;2.57;100.00
54910;BME280;63189;51.240;9.964;2024-02-26T06:08:57;96363.28;;;2.48;100.00
54910;BME280;63189;51.240;9.964;2024-02-26T06:11:22;96375.22;;;2.52;100.00
54910;BME280;63189;51.240;9.964;2024-02-26T06:13:48;96365.94;;;2.45;100.00
54910;BME280;63189;51.240;9.964;2024-02-26T06:16:13;96381.97;;;2.56;100.00
54910;BME280;63189;51.240;9.964;2024-02-26T06:18:38;96376.00;;;2.54;100.00
54910;BME280;63189;51.240;9.964;2024-02-26T06:21:04;96383.81;;;2.51;100.00
54910;BME280;63189;51.240;9.964;2024-02-26T06:23:30;96379.59;;;2.47;100.00
54910;BME280;63189;51.240;9.964;2024-02-26T06:25:55;96378.88;;;2.42;100.00
54910;BME280;63189;51.240;9.964;2024-02-26T06:28:20;96367.81;;;2.39;100.00
54910;BME280;63189;51.240;9.964;2024-02-26T06:30:46;96390.69;;;2.49;100.00
54910;BME280;63189;51.240;9.964;2024-02-26T06:33:11;96395.84;;;2.49;100.00
54910;BME280;63189;51.240;9.964;2024-02-26T06:35:37;96404.22;;;2.57;100.00
54910;BME280;63189;51.240;9.964;2024-02-26T06:38:03;96406.88;;;2.54;100.00
54910;BME280;63189;51.240;9.964;2024-02-26T06:40:29;96419.66;;;2.57;100.00
54910;BME280;63189;51.240;9.964;2024-02-26T06:42:54;96411.16;;;2.55;100.00
54910;BME280;63189;51.240;9.964;2024-02-26T06:45:20;96423.84;;;2.63;100.00
54910;BME280;63189;51.240;9.964;2024-02-26T06:47:45;96411.94;;;2.57;100.00
54910;BME280;63189;51.240;9.964;2024-02-26T06:50:12;96427.13;;;2.68;100.00
54910;BME280;63189;51.240;9.964;2024-02-26T06:52:38;96416.78;;;2.70;100.00
54910;BME280;63189;51.240;9.964;2024-02-26T06:55:04;96432.09;;;2.76;100.00
54910;BME280;63189;51.240;9.964;2024-02-26T06:57:30;96427.78;;;2.76;100.00
54910;BME280;63189;51.240;9.964;2024-02-26T06:59:55;96426.81;;;2.82;100.00
54910;BME280;63189;51.240;9.964;2024-02-26T07:02:21;96429.31;;;2.85;100.00
54910;BME280;63189;51.240;9.964;2024-02-26T07:04:46;96433.47;;;2.89;100.00
54910;BME280;63189;51.240;9.964;2024-02-26T07:07:11;96426.72;;;2.85;100.00
54910;BME280;63189;51.240;9.964;2024-02-26T07:09:37;96433.44;;;2.92;100.00
54910;BME280;63189;51.240;9.964;2024-02-26T07:12:02;96423.34;;;2.83;100.00
54910;BME280;63189;51.240;9.964;2024-02-26T07:14:28;96429.97;;;2.93;100.00
54910;BME280;63189;51.240;9.964;2024-02-26T07:16:53;96434.16;;;2.97;100.00
54910;BME280;63189;51.240;9.964;2024-02-26T07:19:19;96436.69;;;2.99;100.00
54910;BME280;63189;51.240;9.964;2024-02-26T07:21:44;96443.41;;;3.04;100.00
54910;BME280;63189;51.240;9.964;2024-02-26T07:24:09;96448.47;;;3.07;100.00
54910;BME280;63189;51.240;9.964;2024-02-26T07:26:34;96433.00;;;3.09;100.00
54910;BME280;63189;51.240;9.964;2024-02-26T07:29:00;96438.84;;;3.15;100.00
54910;BME280;63189;51.240;9.964;2024-02-26T07:31:26;96435.41;;;3.15;100.00
54910;BME280;63189;51.240;9.964;2024-02-26T07:33:51;96450.78;;;3.18;100.00
54910;BME280;63189;51.240;9.964;2024-02-26T07:36:17;96453.31;;;3.19;100.00
54910;BME280;63189;51.240;9.964;2024-02-26T07:38:42;96455.75;;;3.26;100.00
54910;BME280;63189;51.240;9.964;2024-02-26T07:41:07;96430.19;;;3.18;100.00
54910;BME280;63189;51.240;9.964;2024-02-26T07:43:33;96451.25;;;3.34;100.00
54910;BME280;63189;51.240;9.964;2024-02-26T07:45:58;96428.25;;;3.26;100.00
54910;BME280;63189;51.240;9.964;2024-02-26T07:48:24;96441.66;;;3.39;100.00
54910;BME280;63189;51.240;9.964;2024-02-26T07:50:49;96455.09;;;3.50;100.00
54910;BME280;63189;51.240;9.964;2024-02-26T07:53:15;96427.72;;;3.46;100.00
54910;BME280;63189;51.240;9.964;2024-02-26T07:55:40;96439.34;;;3.61;100.00
54910;BME280;63189;51.240;9.964;2024-02-26T07:58:05;96441.53;;;3.74;100.00
54910;BME280;63189;51.240;9.964;2024-02-26T08:00:31;96449.00;;;3.84;100.00
54910;BME280;63189;51.240;9.964;2024-02-26T08:02:56;96445.28;;;3.94;100.00
54910;BME280;63189;51.240;9.964;2024-02-26T08:05:22;96444.91;;;4.08;100.00
54910;BME280;63189;51.240;9.964;2024-02-26T08:07:47;96452.03;;;4.29;100.00
54910;BME280;63189;51.240;9.964;2024-02-26T08:10:12;96456.66;;;4.46;100.00
54910;BME280;63189;51.240;9.964;2024-02-26T08:12:38;96461.31;;;4.62;100.00
54910;BME280;63189;51.240;9.964;2024-02-26T08:15:04;96466.94;;;4.75;100.00
54910;BME280;63189;51.240;9.964;2024-02-26T08:17:30;96464.50;;;4.97;100.00
54910;BME280;63189;51.240;9.964;2024-02-26T08:19:55;96472.81;;;5.07;100.00
54910;BME280;63189;51.240;9.964;2024-02-26T08:22:22;96482.25;;;5.34;100.00
54910;BME280;63189;51.240;9.964;2024-02-26T08:24:47;96481.47;;;5.57;100.00
54910;BME280;63189;51.240;9.964;2024-02-26T08:27:13;96478.75;;;5.60;100.00
54910;BME280;63189;51.240;9.964;2024-02-26T08:29:38;96482.00;;;5.67;99.72
54910;BME280;63189;51.240;9.964;2024-02-26T08:32:04;96475.19;;;5.64;97.65
54910;BME280;63189;51.240;9.964;2024-02-26T08:34:29;96473.50;;;5.63;97.35
54910;BME280;63189;51.240;9.964;2024-02-26T08:36:54;96481.22;;;5.65;98.98
54910;BME280;63189;51.240;9.964;2024-02-26T08:39:20;96481.22;;;5.65;97.87
54910;BME280;63189;51.240;9.964;2024-02-26T08:41:45;96480.41;;;5.63;98.80
54910;BME280;63189;51.240;9.964;2024-02-26T08:44:11;96492.44;;;5.64;98.01
54910;BME280;63189;51.240;9.964;2024-02-26T08:46:36;96483.69;;;5.68;97.65
54910;BME280;63189;51.240;9.964;2024-02-26T08:49:02;96481.09;;;5.68;98.03
54910;BME280;63189;51.240;9.964;2024-02-26T08:51:28;96480.13;;;5.70;97.63
54910;BME280;63189;51.240;9.964;2024-02-26T08:53:54;96484.97;;;5.79;96.76
54910;BME280;63189;51.240;9.964;2024-02-26T08:56:20;96489.31;;;5.79;97.83
54910;BME280;63189;51.240;9.964;2024-02-26T08:58:46;96491.97;;;5.77;97.17
54910;BME280;63189;51.240;9.964;2024-02-26T09:01:14;96480.88;;;5.74;97.14
54910;BME280;63189;51.240;9.964;2024-02-26T09:03:39;96471.31;;;5.76;96.02
54910;BME280;63189;51.240;9.964;2024-02-26T09:06:05;96480.03;;;5.98;96.20
54910;BME280;63189;51.240;9.964;2024-02-26T09:08:32;96441.59;;;5.88;96.61
54910;BME280;63189;51.240;9.964;2024-02-26T09:10:57;96475.00;;;6.19;96.12
54910;BME280;63189;51.240;9.964;2024-02-26T09:13:22;96449.22;;;6.16;95.51
54910;BME280;63189;51.240;9.964;2024-02-26T09:15:48;96479.19;;;6.45;95.39
54910;BME280;63189;51.240;9.964;2024-02-26T09:18:14;96477.66;;;6.62;95.40
54910;BME280;63189;51.240;9.964;2024-02-26T09:20:40;96465.59;;;6.83;95.33
54910;BME280;63189;51.240;9.964;2024-02-26T09:23:05;96478.84;;;7.19;94.23
54910;BME280;63189;51.240;9.964;2024-02-26T09:25:30;96476.53;;;7.34;92.42
54910;BME280;63189;51.240;9.964;2024-02-26T09:27:56;96474.47;;;7.42;92.96
54910;BME280;63189;51.240;9.964;2024-02-26T09:30:21;96464.53;;;7.31;90.43
54910;BME280;63189;51.240;9.964;2024-02-26T09:32:47;96465.38;;;7.32;91.94
54910;BME280;63189;51.240;9.964;2024-02-26T09:35:13;96466.66;;;7.21;89.25
54910;BME280;63189;51.240;9.964;2024-02-26T09:37:38;96469.81;;;7.08;88.10
54910;BME280;63189;51.240;9.964;2024-02-26T09:40:04;96472.94;;;6.94;87.16
54910;BME280;63189;51.240;9.964;2024-02-26T09:42:31;96484.84;;;7.00;90.26
54910;BME280;63189;51.240;9.964;2024-02-26T09:45:01;96490.19;;;6.95;90.08
54910;BME280;63189;51.240;9.964;2024-02-26T09:47:33;96496.22;;;6.95;90.46
54910;BME280;63189;51.240;9.964;2024-02-26T09:49:59;96489.94;;;7.01;90.59
54910;BME280;63189;51.240;9.964;2024-02-26T09:52:28;96487.06;;;7.09;90.15
54910;BME280;63189;51.240;9.964;2024-02-26T09:54:56;96494.63;;;7.13;90.85
54910;BME280;63189;51.240;9.964;2024-02-26T09:57:21;96489.31;;;7.16;89.21
54910;BME280;63189;51.240;9.964;2024-02-26T09:59:51;96468.38;;;7.01;88.61
54910;BME280;63189;51.240;9.964;2024-02-26T10:02:20;96474.88;;;7.11;88.83
54910;BME280;63189;51.240;9.964;2024-02-26T10:04:47;96489.09;;;7.22;88.87
54910;BME280;63189;51.240;9.964;2024-02-26T10:07:13;96483.91;;;7.22;88.52
54910;BME280;63189;51.240;9.964;2024-02-26T10:09:39;96494.81;;;7.31;88.72
54910;BME280;63189;51.240;9.964;2024-02-26T10:12:07;96507.38;;;7.40;88.34
54910;BME280;63189;51.240;9.964;2024-02-26T10:14:33;96501.81;;;7.49;88.81
54910;BME280;63189;51.240;9.964;2024-02-26T10:16:59;96507.28;;;7.43;86.55
54910;BME280;63189;51.240;9.964;2024-02-26T10:19:29;96496.44;;;7.53;85.18
54910;BME280;63189;51.240;9.964;2024-02-26T10:21:59;96495.09;;;7.65;86.23
54910;BME280;63189;51.240;9.964;2024-02-26T10:24:26;96489.44;;;7.76;85.97
54910;BME280;63189;51.240;9.964;2024-02-26T10:26:52;96499.34;;;8.07;86.41
54910;BME280;63189;51.240;9.964;2024-02-26T10:29:18;96511.78;;;8.39;83.71
54910;BME280;63189;51.240;9.964;2024-02-26T10:31:44;96513.41;;;8.61;81.49
54910;BME280;63189;51.240;9.964;2024-02-26T10:34:10;96489.09;;;8.81;80.44
54910;BME280;63189;51.240;9.964;2024-02-26T10:36:36;96491.31;;;9.07;82.54
54910;BME280;63189;51.240;9.964;2024-02-26T10:39:03;96505.56;;;9.17;81.84
54910;BME280;63189;51.240;9.964;2024-02-26T10:41:29;96511.22;;;9.25;80.88
54910;BME280;63189;51.240;9.964;2024-02-26T10:43:55;96520.34;;;9.34;81.30
54910;BME280;63189;51.240;9.964;2024-02-26T10:46:20;96517.22;;;9.28;77.40
54910;BME280;63189;51.240;9.964;2024-02-26T10:48:53;96507.16;;;9.37;79.66
54910;BME280;63189;51.240;9.964;2024-02-26T10:51:30;96518.66;;;9.33;77.26
54910;BME280;63189;51.240;9.964;2024-02-26T10:53:57;96508.00;;;9.20;79.83
54910;BME280;63189;51.240;9.964;2024-02-26T10:56:26;96525.28;;;9.21;79.73
54910;BME280;63189;51.240;9.964;2024-02-26T10:58:53;96520.75;;;9.08;80.54
54910;BME280;63189;51.240;9.964;2024-02-26T11:01:20;96533.25;;;9.00;80.53
54910;BME280;63189;51.240;9.964;2024-02-26T11:03:48;96523.72;;;8.81;81.99
54910;BME280;63189;51.240;9.964;2024-02-26T11:06:15;96519.59;;;8.77;81.26
54910;BME280;63189;51.240;9.964;2024-02-26T11:08:40;96533.84;;;8.68;80.62
54910;BME280;63189;51.240;9.964;2024-02-26T11:11:06;96537.69;;;8.60;82.01
54910;BME280;63189;51.240;9.964;2024-02-26T11:13:33;96534.41;;;8.56;83.20
54910;BME280;63189;51.240;9.964;2024-02-26T11:15:59;96546.81;;;8.50;82.47
54910;BME280;63189;51.240;9.964;2024-02-26T11:18:27;96547.06;;;8.44;82.73
54910;BME280;63189;51.240;9.964;2024-02-26T11:20:54;96533.06;;;8.27;81.73
54910;BME280;63189;51.240;9.964;2024-02-26T11:23:22;96547.88;;;8.25;84.09
54910;BME280;63189;51.240;9.964;2024-02-26T11:25:49;96546.44;;;8.18;85.40
54910;BME280;63189;51.240;9.964;2024-02-26T11:28:18;96550.19;;;8.11;85.80
54910;BME280;63189;51.240;9.964;2024-02-26T11:30:47;96542.69;;;8.05;85.85
54910;BME280;63189;51.240;9.964;2024-02-26T11:33:14;96547.22;;;8.00;86.29
54910;BME280;63189;51.240;9.964;2024-02-26T11:35:40;96541.41;;;7.95;86.22
54910;BME280;63189;51.240;9.964;2024-02-26T11:38:06;96537.31;;;7.89;85.52
54910;BME280;63189;51.240;9.964;2024-02-26T11:40:33;96520.19;;;7.85;85.56
54910;BME280;63189;51.240;9.964;2024-02-26T11:42:59;96541.41;;;7.95;85.46
54910;BME280;63189;51.240;9.964;2024-02-26T11:48:15;96537.31;;;7.89;83.34
54910;BME280;63189;51.240;9.964;2024-02-26T11:50:54;96547.38;;;7.97;84.98
54910;BME280;63189;51.240;9.964;2024-02-26T11:56:13;96548.66;;;7.87;83.64
54910;BME280;63189;51.240;9.964;2024-02-26T11:58:39;96550.66;;;7.80;84.72
54910;BME280;63189;51.240;9.964;2024-02-26T12:01:05;96536.78;;;7.81;84.78
54910;BME280;63189;51.240;9.964;2024-02-26T12:03:31;96546.06;;;7.87;84.34
54910;BME280;63189;51.240;9.964;2024-02-26T12:05:56;96546.00;;;7.88;84.87
54910;BME280;63189;51.240;9.964;2024-02-26T12:08:22;96539.91;;;7.89;85.27
54910;BME280;63189;51.240;9.964;2024-02-26T12:10:48;96556.97;;;7.95;85.24
54910;BME280;63189;51.240;9.964;2024-02-26T12:13:17;96556.06;;;7.96;85.25
54910;BME280;63189;51.240;9.964;2024-02-26T12:15:46;96560.19;;;8.00;85.60
54910;BME280;63189;51.240;9.964;2024-02-26T12:18:20;96561.50;;;7.90;83.23
54910;BME280;63189;51.240;9.964;2024-02-26T12:20:46;96574.09;;;7.78;83.14
54910;BME280;63189;51.240;9.964;2024-02-26T12:23:16;96570.56;;;7.79;84.48
54910;BME280;63189;51.240;9.964;2024-02-26T12:25:44;96563.13;;;7.72;83.51
54910;BME280;63189;51.240;9.964;2024-02-26T12:28:09;96564.81;;;7.73;84.34
54910;BME280;63189;51.240;9.964;2024-02-26T12:30:35;96572.72;;;7.70;84.14
54910;BME280;63189;51.240;9.964;2024-02-26T12:33:01;96570.19;;;7.68;85.00
54910;BME280;63189;51.240;9.964;2024-02-26T12:35:27;96567.72;;;7.65;85.23
54910;BME280;63189;51.240;9.964;2024-02-26T12:37:53;96577.06;;;7.69;85.43
54910;BME280;63189;51.240;9.964;2024-02-26T12:40:20;96587.91;;;7.79;85.59
54910;BME280;63189;51.240;9.964;2024-02-26T12:42:45;96583.56;;;7.79;85.81
54910;BME280;63189;51.240;9.964;2024-02-26T12:45:12;96586.94;;;7.81;85.87
54910;BME280;63189;51.240;9.964;2024-02-26T12:47:38;96598.88;;;7.86;85.94
54910;BME280;63189;51.240;9.964;2024-02-26T12:50:05;96582.00;;;7.75;84.73
54910;BME280;63189;51.240;9.964;2024-02-26T12:52:34;96590.41;;;7.80;84.28
54910;BME280;63189;51.240;9.964;2024-02-26T12:55:02;96586.28;;;7.76;84.28
54910;BME280;63189;51.240;9.964;2024-02-26T12:57:31;96565.97;;;7.66;84.42
54910;BME280;63189;51.240;9.964;2024-02-26T12:59:59;96577.59;;;7.77;85.05
54910;BME280;63189;51.240;9.964;2024-02-26T13:02:25;96572.47;;;7.76;85.12
54910;BME280;63189;51.240;9.964;2024-02-26T13:04:51;96559.81;;;7.68;84.58